< < Back
Terminal Aerodrome Forecast


Current Version              Previous Versions:   1  2  3  4  5  6  7  8  9  

Terminal Aerodrome Forecast

153
FTUS44 KBMX 171200 AAB
TAFMGM
TAF AMD
KMGM 171243Z 1713/1812 VRB03KT 3SM BR FEW007
     FM171400 34006KT P6SM SKC
     FM180000 VRB02KT P6SM SKC=

Latest METAR

055
SAUS80 KWBC 180900 RRB
MTRMGM
METAR KMGM 180853Z AUTO 01003KT 10SM CLR 21/18 A2992 RMK AO2 SLP130
T02060183 55005


USA.gov is the U.S. government's official web portal to all federal, state and local government web resources and services.